sensor_id;sensor_type;location;lat;lon;timestamp;P1;durP1;ratioP1;P2;durP2;ratioP2
11496;SDS011;5805;51.542;7.230;2023-06-14T00:02:15;6.63;;;4.20;;
11496;SDS011;5805;51.542;7.230;2023-06-14T00:04:41;6.47;;;4.30;;
11496;SDS011;5805;51.542;7.230;2023-06-14T00:07:10;6.32;;;4.25;;
11496;SDS011;5805;51.542;7.230;2023-06-14T00:09:35;4.60;;;3.88;;
11496;SDS011;5805;51.542;7.230;2023-06-14T00:12:01;4.55;;;4.00;;
11496;SDS011;5805;51.542;7.230;2023-06-14T00:14:27;5.07;;;4.05;;
11496;SDS011;5805;51.542;7.230;2023-06-14T00:16:53;5.05;;;3.80;;
11496;SDS011;5805;51.542;7.230;2023-06-14T00:19:18;5.35;;;3.90;;
11496;SDS011;5805;51.542;7.230;2023-06-14T00:21:44;7.15;;;4.00;;
11496;SDS011;5805;51.542;7.230;2023-06-14T00:24:11;5.88;;;3.85;;
11496;SDS011;5805;51.542;7.230;2023-06-14T00:26:37;7.93;;;3.85;;
11496;SDS011;5805;51.542;7.230;2023-06-14T00:29:02;6.07;;;4.13;;
11496;SDS011;5805;51.542;7.230;2023-06-14T00:31:28;5.40;;;4.10;;
11496;SDS011;5805;51.542;7.230;2023-06-14T00:33:54;9.65;;;4.45;;
11496;SDS011;5805;51.542;7.230;2023-06-14T00:36:20;5.00;;;3.80;;
11496;SDS011;5805;51.542;7.230;2023-06-14T00:38:46;5.50;;;4.00;;
11496;SDS011;5805;51.542;7.230;2023-06-14T00:41:13;6.20;;;3.67;;
11496;SDS011;5805;51.542;7.230;2023-06-14T00:43:38;6.47;;;3.67;;
11496;SDS011;5805;51.542;7.230;2023-06-14T00:46:04;4.65;;;3.88;;
11496;SDS011;5805;51.542;7.230;2023-06-14T00:48:30;5.03;;;3.60;;
11496;SDS011;5805;51.542;7.230;2023-06-14T00:50:56;4.60;;;3.30;;
11496;SDS011;5805;51.542;7.230;2023-06-14T00:53:23;7.72;;;3.70;;
11496;SDS011;5805;51.542;7.230;2023-06-14T00:55:49;5.13;;;3.22;;
11496;SDS011;5805;51.542;7.230;2023-06-14T00:58:16;6.00;;;3.63;;
11496;SDS011;5805;51.542;7.230;2023-06-14T01:00:42;5.15;;;3.72;;
11496;SDS011;5805;51.542;7.230;2023-06-14T01:03:08;4.45;;;3.30;;
11496;SDS011;5805;51.542;7.230;2023-06-14T01:05:34;5.60;;;4.10;;
11496;SDS011;5805;51.542;7.230;2023-06-14T01:08:05;7.95;;;3.60;;
11496;SDS011;5805;51.542;7.230;2023-06-14T01:10:46;5.78;;;3.40;;
11496;SDS011;5805;51.542;7.230;2023-06-14T01:13:19;6.60;;;3.63;;
11496;SDS011;5805;51.542;7.230;2023-06-14T01:15:48;4.68;;;2.97;;
11496;SDS011;5805;51.542;7.230;2023-06-14T01:18:15;8.02;;;3.85;;
11496;SDS011;5805;51.542;7.230;2023-06-14T01:20:42;3.75;;;3.22;;
11496;SDS011;5805;51.542;7.230;2023-06-14T01:23:10;6.88;;;3.35;;
11496;SDS011;5805;51.542;7.230;2023-06-14T01:25:36;6.43;;;3.17;;
11496;SDS011;5805;51.542;7.230;2023-06-14T01:28:02;5.97;;;3.45;;
11496;SDS011;5805;51.542;7.230;2023-06-14T01:30:31;4.82;;;3.50;;
11496;SDS011;5805;51.542;7.230;2023-06-14T01:32:57;3.42;;;2.92;;
11496;SDS011;5805;51.542;7.230;2023-06-14T01:35:23;5.68;;;3.05;;
11496;SDS011;5805;51.542;7.230;2023-06-14T01:37:50;5.88;;;2.97;;
11496;SDS011;5805;51.542;7.230;2023-06-14T01:40:18;4.60;;;2.90;;
11496;SDS011;5805;51.542;7.230;2023-06-14T01:42:46;4.38;;;3.30;;
11496;SDS011;5805;51.542;7.230;2023-06-14T01:45:12;5.95;;;3.40;;
11496;SDS011;5805;51.542;7.230;2023-06-14T01:47:40;4.05;;;3.00;;
11496;SDS011;5805;51.542;7.230;2023-06-14T01:50:06;2.50;;;2.30;;
11496;SDS011;5805;51.542;7.230;2023-06-14T01:52:32;6.60;;;3.65;;
11496;SDS011;5805;51.542;7.230;2023-06-14T01:54:58;3.00;;;2.53;;
11496;SDS011;5805;51.542;7.230;2023-06-14T01:57:25;4.93;;;2.88;;
11496;SDS011;5805;51.542;7.230;2023-06-14T01:59:50;6.00;;;3.10;;
11496;SDS011;5805;51.542;7.230;2023-06-14T02:02:16;4.18;;;3.20;;
11496;SDS011;5805;51.542;7.230;2023-06-14T02:04:42;6.50;;;2.90;;
11496;SDS011;5805;51.542;7.230;2023-06-14T02:07:08;4.82;;;2.75;;
11496;SDS011;5805;51.542;7.230;2023-06-14T02:09:33;5.38;;;2.90;;
11496;SDS011;5805;51.542;7.230;2023-06-14T02:11:59;2.85;;;2.50;;
11496;SDS011;5805;51.542;7.230;2023-06-14T02:14:26;3.92;;;2.92;;
11496;SDS011;5805;51.542;7.230;2023-06-14T02:16:52;3.42;;;2.55;;
11496;SDS011;5805;51.542;7.230;2023-06-14T02:19:18;4.80;;;2.72;;
11496;SDS011;5805;51.542;7.230;2023-06-14T02:21:45;3.95;;;2.55;;
11496;SDS011;5805;51.542;7.230;2023-06-14T02:24:11;5.13;;;2.53;;
11496;SDS011;5805;51.542;7.230;2023-06-14T02:26:38;5.13;;;2.72;;
11496;SDS011;5805;51.542;7.230;2023-06-14T02:29:04;3.20;;;2.30;;
11496;SDS011;5805;51.542;7.230;2023-06-14T02:31:32;4.18;;;2.40;;
11496;SDS011;5805;51.542;7.230;2023-06-14T02:33:58;5.38;;;2.50;;
11496;SDS011;5805;51.542;7.230;2023-06-14T02:36:23;3.38;;;2.20;;
11496;SDS011;5805;51.542;7.230;2023-06-14T02:38:49;2.72;;;2.40;;
11496;SDS011;5805;51.542;7.230;2023-06-14T02:41:15;5.28;;;2.38;;
11496;SDS011;5805;51.542;7.230;2023-06-14T02:43:40;3.35;;;2.55;;
11496;SDS011;5805;51.542;7.230;2023-06-14T02:46:06;6.05;;;2.70;;
11496;SDS011;5805;51.542;7.230;2023-06-14T02:48:33;3.22;;;2.25;;
11496;SDS011;5805;51.542;7.230;2023-06-14T02:50:59;8.07;;;2.80;;
11496;SDS011;5805;51.542;7.230;2023-06-14T02:53:24;7.05;;;2.70;;
11496;SDS011;5805;51.542;7.230;2023-06-14T02:55:50;4.95;;;2.65;;
11496;SDS011;5805;51.542;7.230;2023-06-14T02:58:16;4.00;;;2.70;;
11496;SDS011;5805;51.542;7.230;2023-06-14T03:00:41;5.40;;;2.72;;
11496;SDS011;5805;51.542;7.230;2023-06-14T03:03:07;3.97;;;2.75;;
11496;SDS011;5805;51.542;7.230;2023-06-14T03:05:35;4.25;;;2.40;;
11496;SDS011;5805;51.542;7.230;2023-06-14T03:08:04;5.00;;;2.50;;
11496;SDS011;5805;51.542;7.230;2023-06-14T03:10:29;4.00;;;2.60;;
11496;SDS011;5805;51.542;7.230;2023-06-14T03:12:55;3.72;;;2.42;;
11496;SDS011;5805;51.542;7.230;2023-06-14T03:15:21;7.70;;;2.88;;
11496;SDS011;5805;51.542;7.230;2023-06-14T03:17:46;5.18;;;3.00;;
11496;SDS011;5805;51.542;7.230;2023-06-14T03:20:12;2.50;;;2.30;;
11496;SDS011;5805;51.542;7.230;2023-06-14T03:22:39;2.67;;;2.30;;
11496;SDS011;5805;51.542;7.230;2023-06-14T03:25:05;3.92;;;2.55;;
11496;SDS011;5805;51.542;7.230;2023-06-14T03:27:32;2.50;;;2.30;;
11496;SDS011;5805;51.542;7.230;2023-06-14T03:29:57;3.38;;;2.30;;
11496;SDS011;5805;51.542;7.230;2023-06-14T03:32:23;2.55;;;2.35;;
11496;SDS011;5805;51.542;7.230;2023-06-14T03:34:49;3.25;;;2.22;;
11496;SDS011;5805;51.542;7.230;2023-06-14T03:37:14;3.03;;;2.00;;
11496;SDS011;5805;51.542;7.230;2023-06-14T03:39:41;4.25;;;2.35;;
11496;SDS011;5805;51.542;7.230;2023-06-14T03:42:07;2.58;;;2.35;;
11496;SDS011;5805;51.542;7.230;2023-06-14T03:44:33;4.50;;;2.45;;
11496;SDS011;5805;51.542;7.230;2023-06-14T03:46:59;5.43;;;2.40;;
11496;SDS011;5805;51.542;7.230;2023-06-14T03:49:25;3.60;;;2.33;;
11496;SDS011;5805;51.542;7.230;2023-06-14T03:51:50;3.05;;;2.40;;
11496;SDS011;5805;51.542;7.230;2023-06-14T03:54:16;3.25;;;2.22;;
11496;SDS011;5805;51.542;7.230;2023-06-14T03:56:43;4.90;;;2.15;;
11496;SDS011;5805;51.542;7.230;2023-06-14T03:59:11;3.63;;;2.30;;
11496;SDS011;5805;51.542;7.230;2023-06-14T04:01:37;4.20;;;2.15;;
11496;SDS011;5805;51.542;7.230;2023-06-14T04:04:02;2.40;;;2.17;;
11496;SDS011;5805;51.542;7.230;2023-06-14T04:06:28;4.72;;;2.45;;
11496;SDS011;5805;51.542;7.230;2023-06-14T04:08:54;3.35;;;2.38;;
11496;SDS011;5805;51.542;7.230;2023-06-14T04:11:19;3.80;;;2.42;;
11496;SDS011;5805;51.542;7.230;2023-06-14T04:13:46;3.53;;;2.42;;
11496;SDS011;5805;51.542;7.230;2023-06-14T04:16:12;3.78;;;2.47;;
11496;SDS011;5805;51.542;7.230;2023-06-14T04:18:38;2.85;;;2.22;;
11496;SDS011;5805;51.542;7.230;2023-06-14T04:21:04;5.75;;;2.25;;
11496;SDS011;5805;51.542;7.230;2023-06-14T04:23:30;2.42;;;2.10;;
11496;SDS011;5805;51.542;7.230;2023-06-14T04:25:55;2.50;;;2.22;;
11496;SDS011;5805;51.542;7.230;2023-06-14T04:28:21;3.30;;;2.10;;
11496;SDS011;5805;51.542;7.230;2023-06-14T04:30:48;3.70;;;2.50;;
11496;SDS011;5805;51.542;7.230;2023-06-14T04:33:14;4.03;;;2.42;;
11496;SDS011;5805;51.542;7.230;2023-06-14T04:35:39;2.67;;;2.20;;
11496;SDS011;5805;51.542;7.230;2023-06-14T04:38:05;5.70;;;2.33;;
11496;SDS011;5805;51.542;7.230;2023-06-14T04:40:32;5.43;;;2.45;;
11496;SDS011;5805;51.542;7.230;2023-06-14T04:43:00;3.63;;;2.10;;
11496;SDS011;5805;51.542;7.230;2023-06-14T04:45:26;4.32;;;2.30;;
11496;SDS011;5805;51.542;7.230;2023-06-14T04:47:53;4.45;;;2.25;;
11496;SDS011;5805;51.542;7.230;2023-06-14T04:50:19;3.40;;;2.50;;
11496;SDS011;5805;51.542;7.230;2023-06-14T04:52:44;4.38;;;2.28;;
11496;SDS011;5805;51.542;7.230;2023-06-14T04:55:10;6.75;;;2.42;;
11496;SDS011;5805;51.542;7.230;2023-06-14T04:57:36;4.03;;;1.95;;
11496;SDS011;5805;51.542;7.230;2023-06-14T05:00:02;3.75;;;2.30;;
11496;SDS011;5805;51.542;7.230;2023-06-14T05:02:28;4.68;;;2.63;;
11496;SDS011;5805;51.542;7.230;2023-06-14T05:04:55;4.22;;;2.35;;
11496;SDS011;5805;51.542;7.230;2023-06-14T05:07:20;6.97;;;2.25;;
11496;SDS011;5805;51.542;7.230;2023-06-14T05:09:46;3.83;;;2.05;;
11496;SDS011;5805;51.542;7.230;2023-06-14T05:12:12;7.55;;;2.38;;
11496;SDS011;5805;51.542;7.230;2023-06-14T05:14:37;5.13;;;2.33;;
11496;SDS011;5805;51.542;7.230;2023-06-14T05:17:03;2.65;;;1.95;;
11496;SDS011;5805;51.542;7.230;2023-06-14T05:19:29;2.38;;;1.98;;
11496;SDS011;5805;51.542;7.230;2023-06-14T05:21:56;3.95;;;2.20;;
11496;SDS011;5805;51.542;7.230;2023-06-14T05:24:22;3.85;;;2.58;;
11496;SDS011;5805;51.542;7.230;2023-06-14T05:26:48;3.20;;;2.35;;
11496;SDS011;5805;51.542;7.230;2023-06-14T05:29:13;3.13;;;2.30;;
11496;SDS011;5805;51.542;7.230;2023-06-14T05:31:39;5.25;;;2.20;;
11496;SDS011;5805;51.542;7.230;2023-06-14T05:34:05;3.63;;;1.85;;
11496;SDS011;5805;51.542;7.230;2023-06-14T05:36:31;2.03;;;1.80;;
11496;SDS011;5805;51.542;7.230;2023-06-14T05:38:58;2.30;;;1.80;;
11496;SDS011;5805;51.542;7.230;2023-06-14T05:41:24;3.13;;;2.00;;
11496;SDS011;5805;51.542;7.230;2023-06-14T05:43:49;3.60;;;2.33;;
11496;SDS011;5805;51.542;7.230;2023-06-14T05:46:15;2.88;;;1.95;;
11496;SDS011;5805;51.542;7.230;2023-06-14T05:48:41;2.20;;;1.90;;
11496;SDS011;5805;51.542;7.230;2023-06-14T05:51:06;2.00;;;1.80;;
11496;SDS011;5805;51.542;7.230;2023-06-14T05:53:32;3.97;;;1.90;;
11496;SDS011;5805;51.542;7.230;2023-06-14T05:55:59;2.60;;;2.20;;
11496;SDS011;5805;51.542;7.230;2023-06-14T05:58:25;5.63;;;2.15;;
11496;SDS011;5805;51.542;7.230;2023-06-14T06:00:51;3.38;;;2.00;;
11496;SDS011;5805;51.542;7.230;2023-06-14T06:03:16;1.98;;;1.80;;
11496;SDS011;5805;51.542;7.230;2023-06-14T06:05:42;4.43;;;1.75;;
11496;SDS011;5805;51.542;7.230;2023-06-14T06:08:08;1.70;;;1.60;;
11496;SDS011;5805;51.542;7.230;2023-06-14T06:10:33;4.43;;;2.00;;
11496;SDS011;5805;51.542;7.230;2023-06-14T06:13:00;2.38;;;2.13;;
11496;SDS011;5805;51.542;7.230;2023-06-14T06:15:26;2.20;;;1.77;;
11496;SDS011;5805;51.542;7.230;2023-06-14T06:17:52;3.70;;;1.88;;
11496;SDS011;5805;51.542;7.230;2023-06-14T06:20:17;4.10;;;2.17;;
11496;SDS011;5805;51.542;7.230;2023-06-14T06:22:43;3.08;;;1.98;;
11496;SDS011;5805;51.542;7.230;2023-06-14T06:25:09;11.88;;;2.28;;
11496;SDS011;5805;51.542;7.230;2023-06-14T06:27:35;4.70;;;2.00;;
11496;SDS011;5805;51.542;7.230;2023-06-14T06:30:02;3.63;;;2.08;;
11496;SDS011;5805;51.542;7.230;2023-06-14T06:32:28;2.10;;;1.67;;
11496;SDS011;5805;51.542;7.230;2023-06-14T06:34:56;3.35;;;1.92;;
11496;SDS011;5805;51.542;7.230;2023-06-14T06:37:22;3.75;;;1.65;;
11496;SDS011;5805;51.542;7.230;2023-06-14T06:39:47;6.32;;;1.90;;
11496;SDS011;5805;51.542;7.230;2023-06-14T06:42:13;2.25;;;2.05;;
11496;SDS011;5805;51.542;7.230;2023-06-14T06:44:39;4.20;;;2.20;;
11496;SDS011;5805;51.542;7.230;2023-06-14T06:47:06;2.80;;;1.95;;
11496;SDS011;5805;51.542;7.230;2023-06-14T06:49:32;4.45;;;1.80;;
11496;SDS011;5805;51.542;7.230;2023-06-14T06:52:00;5.57;;;1.90;;
11496;SDS011;5805;51.542;7.230;2023-06-14T06:54:26;2.13;;;1.92;;
11496;SDS011;5805;51.542;7.230;2023-06-14T06:56:52;2.33;;;1.85;;
11496;SDS011;5805;51.542;7.230;2023-06-14T06:59:18;3.40;;;1.85;;
11496;SDS011;5805;51.542;7.230;2023-06-14T07:01:44;6.32;;;2.10;;
11496;SDS011;5805;51.542;7.230;2023-06-14T07:04:11;2.10;;;1.90;;
11496;SDS011;5805;51.542;7.230;2023-06-14T07:06:37;3.50;;;1.83;;
11496;SDS011;5805;51.542;7.230;2023-06-14T07:09:03;3.80;;;2.15;;
11496;SDS011;5805;51.542;7.230;2023-06-14T07:11:29;3.83;;;2.23;;
11496;SDS011;5805;51.542;7.230;2023-06-14T07:13:55;3.35;;;1.95;;
11496;SDS011;5805;51.542;7.230;2023-06-14T07:16:20;1.90;;;1.67;;
11496;SDS011;5805;51.542;7.230;2023-06-14T07:18:46;5.90;;;1.95;;
11496;SDS011;5805;51.542;7.230;2023-06-14T07:21:13;3.10;;;2.40;;
11496;SDS011;5805;51.542;7.230;2023-06-14T07:23:39;2.10;;;1.75;;
11496;SDS011;5805;51.542;7.230;2023-06-14T07:26:05;2.55;;;2.13;;
11496;SDS011;5805;51.542;7.230;2023-06-14T07:28:30;2.33;;;1.65;;
11496;SDS011;5805;51.542;7.230;2023-06-14T07:30:56;1.60;;;1.35;;
11496;SDS011;5805;51.542;7.230;2023-06-14T07:33:22;5.72;;;1.40;;
11496;SDS011;5805;51.542;7.230;2023-06-14T07:35:47;2.28;;;1.52;;
11496;SDS011;5805;51.542;7.230;2023-06-14T07:38:14;3.97;;;1.70;;
11496;SDS011;5805;51.542;7.230;2023-06-14T07:40:40;2.58;;;1.83;;
11496;SDS011;5805;51.542;7.230;2023-06-14T07:43:06;2.95;;;1.48;;
11496;SDS011;5805;51.542;7.230;2023-06-14T07:45:31;4.72;;;1.55;;
11496;SDS011;5805;51.542;7.230;2023-06-14T07:47:57;2.72;;;1.80;;
11496;SDS011;5805;51.542;7.230;2023-06-14T07:50:23;2.75;;;1.60;;
11496;SDS011;5805;51.542;7.230;2023-06-14T07:52:49;4.30;;;1.52;;
11496;SDS011;5805;51.542;7.230;2023-06-14T07:55:16;2.47;;;1.65;;
11496;SDS011;5805;51.542;7.230;2023-06-14T07:57:41;3.67;;;1.92;;
11496;SDS011;5805;51.542;7.230;2023-06-14T08:00:07;1.50;;;1.40;;
11496;SDS011;5805;51.542;7.230;2023-06-14T08:02:34;2.40;;;1.90;;
11496;SDS011;5805;51.542;7.230;2023-06-14T08:04:59;4.82;;;1.80;;
11496;SDS011;5805;51.542;7.230;2023-06-14T08:07:25;3.03;;;1.70;;
11496;SDS011;5805;51.542;7.230;2023-06-14T08:09:51;4.07;;;2.00;;
11496;SDS011;5805;51.542;7.230;2023-06-14T08:12:18;4.32;;;1.80;;
11496;SDS011;5805;51.542;7.230;2023-06-14T08:14:43;5.18;;;1.75;;
11496;SDS011;5805;51.542;7.230;2023-06-14T08:17:09;4.22;;;1.77;;
11496;SDS011;5805;51.542;7.230;2023-06-14T08:19:35;2.88;;;1.77;;
11496;SDS011;5805;51.542;7.230;2023-06-14T08:22:00;4.78;;;1.85;;
11496;SDS011;5805;51.542;7.230;2023-06-14T08:24:26;5.93;;;1.90;;
11496;SDS011;5805;51.542;7.230;2023-06-14T08:26:52;2.45;;;1.80;;
11496;SDS011;5805;51.542;7.230;2023-06-14T08:29:19;3.30;;;1.50;;
11496;SDS011;5805;51.542;7.230;2023-06-14T08:31:45;4.50;;;1.85;;
11496;SDS011;5805;51.542;7.230;2023-06-14T08:34:11;4.20;;;1.40;;
11496;SDS011;5805;51.542;7.230;2023-06-14T08:36:37;2.05;;;1.48;;
11496;SDS011;5805;51.542;7.230;2023-06-14T08:39:02;1.50;;;1.40;;
11496;SDS011;5805;51.542;7.230;2023-06-14T08:41:28;1.67;;;1.27;;
11496;SDS011;5805;51.542;7.230;2023-06-14T08:43:54;4.65;;;1.02;;
11496;SDS011;5805;51.542;7.230;2023-06-14T08:46:21;4.10;;;1.23;;
11496;SDS011;5805;51.542;7.230;2023-06-14T08:48:51;2.30;;;1.25;;
11496;SDS011;5805;51.542;7.230;2023-06-14T08:51:18;3.78;;;1.00;;
11496;SDS011;5805;51.542;7.230;2023-06-14T08:53:44;2.00;;;1.30;;
11496;SDS011;5805;51.542;7.230;2023-06-14T08:56:11;1.75;;;1.20;;
11496;SDS011;5805;51.542;7.230;2023-06-14T08:58:37;1.05;;;0.98;;
11496;SDS011;5805;51.542;7.230;2023-06-14T09:01:03;3.72;;;1.02;;
11496;SDS011;5805;51.542;7.230;2023-06-14T09:03:31;1.20;;;1.10;;
11496;SDS011;5805;51.542;7.230;2023-06-14T09:05:56;3.17;;;1.25;;
11496;SDS011;5805;51.542;7.230;2023-06-14T09:08:22;1.17;;;1.10;;
11496;SDS011;5805;51.542;7.230;2023-06-14T09:10:48;1.98;;;1.10;;
11496;SDS011;5805;51.542;7.230;2023-06-14T09:13:13;2.17;;;1.10;;
11496;SDS011;5805;51.542;7.230;2023-06-14T09:15:39;2.63;;;1.00;;
11496;SDS011;5805;51.542;7.230;2023-06-14T09:18:05;1.45;;;1.00;;
11496;SDS011;5805;51.542;7.230;2023-06-14T09:20:32;3.08;;;1.30;;
11496;SDS011;5805;51.542;7.230;2023-06-14T09:22:58;1.42;;;1.05;;
11496;SDS011;5805;51.542;7.230;2023-06-14T09:25:24;1.40;;;1.10;;
11496;SDS011;5805;51.542;7.230;2023-06-14T09:27:51;2.00;;;0.98;;
11496;SDS011;5805;51.542;7.230;2023-06-14T09:30:19;6.35;;;1.60;;
11496;SDS011;5805;51.542;7.230;2023-06-14T09:32:45;1.73;;;1.00;;
11496;SDS011;5805;51.542;7.230;2023-06-14T09:35:11;1.27;;;1.00;;
11496;SDS011;5805;51.542;7.230;2023-06-14T09:37:38;1.25;;;1.15;;
11496;SDS011;5805;51.542;7.230;2023-06-14T09:40:05;4.20;;;1.00;;
11496;SDS011;5805;51.542;7.230;2023-06-14T09:42:31;1.40;;;0.90;;
11496;SDS011;5805;51.542;7.230;2023-06-14T09:44:57;1.55;;;0.75;;
11496;SDS011;5805;51.542;7.230;2023-06-14T09:47:23;1.92;;;0.70;;
11496;SDS011;5805;51.542;7.230;2023-06-14T09:49:49;1.17;;;0.80;;
11496;SDS011;5805;51.542;7.230;2023-06-14T09:52:16;2.78;;;0.90;;
11496;SDS011;5805;51.542;7.230;2023-06-14T09:54:45;2.28;;;0.88;;
11496;SDS011;5805;51.542;7.230;2023-06-14T09:57:12;2.53;;;0.90;;
11496;SDS011;5805;51.542;7.230;2023-06-14T09:59:40;0.70;;;0.70;;
11496;SDS011;5805;51.542;7.230;2023-06-14T10:02:10;1.00;;;0.90;;
11496;SDS011;5805;51.542;7.230;2023-06-14T10:04:46;2.95;;;1.10;;
11496;SDS011;5805;51.542;7.230;2023-06-14T10:07:16;0.82;;;0.82;;
11496;SDS011;5805;51.542;7.230;2023-06-14T10:09:46;1.65;;;1.10;;
11496;SDS011;5805;51.542;7.230;2023-06-14T10:12:12;1.08;;;0.90;;
11496;SDS011;5805;51.542;7.230;2023-06-14T10:14:38;1.27;;;0.80;;
11496;SDS011;5805;51.542;7.230;2023-06-14T10:17:04;1.00;;;0.90;;
11496;SDS011;5805;51.542;7.230;2023-06-14T10:19:34;0.90;;;0.75;;
11496;SDS011;5805;51.542;7.230;2023-06-14T10:22:17;2.05;;;1.00;;
11496;SDS011;5805;51.542;7.230;2023-06-14T10:24:49;1.42;;;0.85;;
11496;SDS011;5805;51.542;7.230;2023-06-14T10:27:14;0.98;;;0.98;;
11496;SDS011;5805;51.542;7.230;2023-06-14T10:32:28;6.30;;;1.08;;
11496;SDS011;5805;51.542;7.230;2023-06-14T10:34:54;3.28;;;1.08;;
11496;SDS011;5805;51.542;7.230;2023-06-14T10:37:21;0.82;;;0.70;;
11496;SDS011;5805;51.542;7.230;2023-06-14T10:39:48;2.60;;;1.00;;
11496;SDS011;5805;51.542;7.230;2023-06-14T10:42:15;2.50;;;0.90;;
11496;SDS011;5805;51.542;7.230;2023-06-14T10:44:41;1.42;;;1.13;;
11496;SDS011;5805;51.542;7.230;2023-06-14T10:47:20;1.50;;;1.00;;
11496;SDS011;5805;51.542;7.230;2023-06-14T10:49:49;1.75;;;0.95;;
11496;SDS011;5805;51.542;7.230;2023-06-14T10:52:16;2.88;;;0.98;;
11496;SDS011;5805;51.542;7.230;2023-06-14T10:55:08;1.77;;;0.90;;
11496;SDS011;5805;51.542;7.230;2023-06-14T10:57:35;1.75;;;0.95;;
11496;SDS011;5805;51.542;7.230;2023-06-14T11:00:02;4.15;;;1.40;;
11496;SDS011;5805;51.542;7.230;2023-06-14T11:05:41;1.58;;;1.13;;
11496;SDS011;5805;51.542;7.230;2023-06-14T11:08:26;7.63;;;1.15;;
11496;SDS011;5805;51.542;7.230;2023-06-14T11:11:05;3.38;;;1.50;;
11496;SDS011;5805;51.542;7.230;2023-06-14T11:13:32;2.45;;;1.25;;
11496;SDS011;5805;51.542;7.230;2023-06-14T11:15:59;2.00;;;1.52;;
11496;SDS011;5805;51.542;7.230;2023-06-14T11:18:25;2.60;;;1.47;;
11496;SDS011;5805;51.542;7.230;2023-06-14T11:20:50;1.73;;;1.20;;
11496;SDS011;5805;51.542;7.230;2023-06-14T11:23:16;2.65;;;1.00;;
11496;SDS011;5805;51.542;7.230;2023-06-14T11:25:42;2.42;;;1.40;;
11496;SDS011;5805;51.542;7.230;2023-06-14T11:28:09;2.53;;;1.55;;
11496;SDS011;5805;51.542;7.230;2023-06-14T11:30:35;2.78;;;1.45;;
11496;SDS011;5805;51.542;7.230;2023-06-14T11:33:00;2.10;;;1.33;;
11496;SDS011;5805;51.542;7.230;2023-06-14T11:35:26;2.78;;;1.90;;
11496;SDS011;5805;51.542;7.230;2023-06-14T11:37:52;2.08;;;1.40;;
11496;SDS011;5805;51.542;7.230;2023-06-14T11:40:18;2.08;;;1.60;;
11496;SDS011;5805;51.542;7.230;2023-06-14T11:42:44;1.50;;;1.40;;
11496;SDS011;5805;51.542;7.230;2023-06-14T11:45:11;2.90;;;1.70;;
11496;SDS011;5805;51.542;7.230;2023-06-14T11:47:37;4.00;;;1.20;;
11496;SDS011;5805;51.542;7.230;2023-06-14T11:50:04;2.95;;;1.73;;
11496;SDS011;5805;51.542;7.230;2023-06-14T11:52:31;4.95;;;1.52;;
11496;SDS011;5805;51.542;7.230;2023-06-14T11:54:57;1.63;;;1.20;;
11496;SDS011;5805;51.542;7.230;2023-06-14T11:57:23;2.55;;;1.60;;
11496;SDS011;5805;51.542;7.230;2023-06-14T11:59:49;3.60;;;1.52;;
11496;SDS011;5805;51.542;7.230;2023-06-14T12:02:17;2.03;;;1.40;;
11496;SDS011;5805;51.542;7.230;2023-06-14T12:04:43;1.50;;;1.38;;
11496;SDS011;5805;51.542;7.230;2023-06-14T12:07:12;1.55;;;1.45;;
11496;SDS011;5805;51.542;7.230;2023-06-14T12:09:39;2.60;;;1.40;;
11496;SDS011;5805;51.542;7.230;2023-06-14T12:12:05;1.90;;;1.55;;
11496;SDS011;5805;51.542;7.230;2023-06-14T12:14:32;3.33;;;1.80;;
11496;SDS011;5805;51.542;7.230;2023-06-14T12:17:03;1.80;;;1.65;;
11496;SDS011;5805;51.542;7.230;2023-06-14T12:19:31;3.72;;;1.60;;
11496;SDS011;5805;51.542;7.230;2023-06-14T12:21:58;3.63;;;1.45;;
11496;SDS011;5805;51.542;7.230;2023-06-14T12:24:27;2.03;;;1.33;;
11496;SDS011;5805;51.542;7.230;2023-06-14T12:26:53;3.67;;;1.58;;
11496;SDS011;5805;51.542;7.230;2023-06-14T12:29:19;1.60;;;1.30;;
11496;SDS011;5805;51.542;7.230;2023-06-14T12:31:45;4.65;;;1.63;;
11496;SDS011;5805;51.542;7.230;2023-06-14T12:34:10;2.08;;;1.40;;
11496;SDS011;5805;51.542;7.230;2023-06-14T12:36:38;1.83;;;1.50;;
11496;SDS011;5805;51.542;7.230;2023-06-14T12:39:04;4.55;;;1.42;;
11496;SDS011;5805;51.542;7.230;2023-06-14T12:41:30;3.13;;;1.40;;
11496;SDS011;5805;51.542;7.230;2023-06-14T12:43:55;2.92;;;1.38;;
11496;SDS011;5805;51.542;7.230;2023-06-14T12:46:21;3.83;;;1.33;;
11496;SDS011;5805;51.542;7.230;2023-06-14T12:48:47;6.13;;;1.60;;
11496;SDS011;5805;51.542;7.230;2023-06-14T12:51:12;2.10;;;1.90;;
11496;SDS011;5805;51.542;7.230;2023-06-14T12:53:39;3.60;;;1.67;;
11496;SDS011;5805;51.542;7.230;2023-06-14T12:56:05;3.53;;;1.50;;
11496;SDS011;5805;51.542;7.230;2023-06-14T12:58:31;2.38;;;1.25;;
11496;SDS011;5805;51.542;7.230;2023-06-14T13:00:56;2.50;;;1.63;;
11496;SDS011;5805;51.542;7.230;2023-06-14T13:03:22;2.70;;;1.58;;
11496;SDS011;5805;51.542;7.230;2023-06-14T13:05:48;3.08;;;1.55;;
11496;SDS011;5805;51.542;7.230;2023-06-14T13:08:14;1.63;;;1.40;;
11496;SDS011;5805;51.542;7.230;2023-06-14T13:10:41;3.00;;;1.55;;
11496;SDS011;5805;51.542;7.230;2023-06-14T13:13:07;2.97;;;1.45;;
11496;SDS011;5805;51.542;7.230;2023-06-14T13:15:32;3.40;;;1.50;;
11496;SDS011;5805;51.542;7.230;2023-06-14T13:17:58;3.17;;;1.58;;
11496;SDS011;5805;51.542;7.230;2023-06-14T13:20:24;5.63;;;1.77;;
11496;SDS011;5805;51.542;7.230;2023-06-14T13:22:49;4.10;;;1.90;;
11496;SDS011;5805;51.542;7.230;2023-06-14T13:25:15;1.90;;;1.63;;
11496;SDS011;5805;51.542;7.230;2023-06-14T13:27:42;3.20;;;1.50;;
11496;SDS011;5805;51.542;7.230;2023-06-14T13:30:08;1.85;;;1.65;;
11496;SDS011;5805;51.542;7.230;2023-06-14T13:32:35;2.03;;;1.50;;
11496;SDS011;5805;51.542;7.230;2023-06-14T13:35:00;3.38;;;1.40;;
11496;SDS011;5805;51.542;7.230;2023-06-14T13:37:26;4.65;;;1.63;;
11496;SDS011;5805;51.542;7.230;2023-06-14T13:39:52;2.25;;;1.67;;
11496;SDS011;5805;51.542;7.230;2023-06-14T13:42:17;3.95;;;1.60;;
11496;SDS011;5805;51.542;7.230;2023-06-14T13:44:45;3.75;;;1.52;;
11496;SDS011;5805;51.542;7.230;2023-06-14T13:47:10;2.50;;;1.70;;
11496;SDS011;5805;51.542;7.230;2023-06-14T13:49:36;1.88;;;1.67;;
11496;SDS011;5805;51.542;7.230;2023-06-14T13:52:02;1.30;;;1.20;;
11496;SDS011;5805;51.542;7.230;2023-06-14T13:54:28;4.85;;;1.52;;
11496;SDS011;5805;51.542;7.230;2023-06-14T13:56:53;3.80;;;1.30;;
11496;SDS011;5805;51.542;7.230;2023-06-14T13:59:19;3.40;;;1.40;;
11496;SDS011;5805;51.542;7.230;2023-06-14T14:01:46;4.80;;;1.80;;
11496;SDS011;5805;51.542;7.230;2023-06-14T14:04:12;1.60;;;1.40;;
11496;SDS011;5805;51.542;7.230;2023-06-14T14:06:38;4.05;;;1.80;;
11496;SDS011;5805;51.542;7.230;2023-06-14T14:09:03;3.72;;;1.60;;
11496;SDS011;5805;51.542;7.230;2023-06-14T14:11:29;2.25;;;1.60;;
11496;SDS011;5805;51.542;7.230;2023-06-14T14:13:55;3.25;;;1.77;;
11496;SDS011;5805;51.542;7.230;2023-06-14T14:16:20;4.15;;;1.40;;
11496;SDS011;5805;51.542;7.230;2023-06-14T14:18:47;1.90;;;1.65;;
11496;SDS011;5805;51.542;7.230;2023-06-14T14:21:13;3.35;;;1.70;;
11496;SDS011;5805;51.542;7.230;2023-06-14T14:23:39;1.70;;;1.60;;
11496;SDS011;5805;51.542;7.230;2023-06-14T14:26:04;2.38;;;1.50;;
11496;SDS011;5805;51.542;7.230;2023-06-14T14:28:30;2.05;;;1.58;;
11496;SDS011;5805;51.542;7.230;2023-06-14T14:30:56;3.10;;;1.50;;
11496;SDS011;5805;51.542;7.230;2023-06-14T14:33:21;4.20;;;1.55;;
11496;SDS011;5805;51.542;7.230;2023-06-14T14:35:50;1.58;;;1.48;;
11496;SDS011;5805;51.542;7.230;2023-06-14T14:38:16;2.08;;;1.58;;
11496;SDS011;5805;51.542;7.230;2023-06-14T14:40:41;4.18;;;1.90;;
11496;SDS011;5805;51.542;7.230;2023-06-14T14:43:07;2.25;;;1.70;;
11496;SDS011;5805;51.542;7.230;2023-06-14T14:45:33;7.47;;;2.07;;
11496;SDS011;5805;51.542;7.230;2023-06-14T14:48:00;2.67;;;1.60;;
11496;SDS011;5805;51.542;7.230;2023-06-14T14:50:26;3.15;;;1.80;;
11496;SDS011;5805;51.542;7.230;2023-06-14T14:52:53;3.72;;;1.80;;
11496;SDS011;5805;51.542;7.230;2023-06-14T14:55:18;3.92;;;1.88;;
11496;SDS011;5805;51.542;7.230;2023-06-14T14:57:45;4.10;;;1.67;;
11496;SDS011;5805;51.542;7.230;2023-06-14T15:00:11;1.85;;;1.45;;
11496;SDS011;5805;51.542;7.230;2023-06-14T15:02:37;2.35;;;1.75;;